OIMC  Sarakhs  Airport

Sarakhs, Iran

Add Bookmark
ICAO OIMC
IATA CKT
Type Airport
Status Operational
Latitude
36° 30' 4" N
36.501202
Longitude
61° 3' 53" E
61.064899
Local (DST + 5) UTC (GMT + 4)
Aug 4, 2015 07:50 Aug 4, 2015 03:20
Sunrise-Sunset Local UTC
Begin Civil Twilight 05:04 00:34
Sunrise 05:32 01:02
Sunset 07:30 15:00
End Civil Twilight 07:59 15:29
VFR
VFR
MVFR
MVFR
IFR
IFR
LIFR
LIFR
Unknown
Unavailable

Current Weather

METAR Observed VFR
OIMC 040200Z 29010KT CAVOK 27/05 Q1008 Tue, Aug 4, 2015 @ 02:00 UTC
(1 Hour, 20 Minutes ago)
Visual Flight Rules
Wind Visibility Conditions
290° at 10 knots (19 kph) 10 km or more
  • No significant weather
Temperatures Readings Precipitation
Current Temp
27°C
81°F
Dewpoint
5°C
41°F
Humidity 24%
Altimeter 29.76" Hg
Sea Level Pressure 1,008 mb
Field Elevation
288 m
945 ft
None Recorded
-
-

CheckWX.com is intended as a tool to help pilots better visualize weather data. It is not intended as a substitute for an official weather briefing obtained from a Flight Service Station. CheckWX.com does not meet the FAA requirements for an official pre-flight weather briefing. Therefore, it's important that pilots still call and obtain an official FSS pre-flight weather briefing.

© 2007-2015 CheckWX.com
03:20:57 UTC